sensor_id;sensor_type;location;lat;lon;timestamp;P1;durP1;ratioP1;P2;durP2;ratioP2
67717;SDS011;54511;47.532;19.180;2024-02-23T00:01:09;0.80;;;0.30;;
67717;SDS011;54511;47.532;19.180;2024-02-23T00:03:56;0.90;;;0.50;;
67717;SDS011;54511;47.532;19.180;2024-02-23T00:07:04;1.23;;;0.90;;
67717;SDS011;54511;47.532;19.180;2024-02-23T00:10:32;2.80;;;0.80;;
67717;SDS011;54511;47.532;19.180;2024-02-23T00:13:38;0.93;;;0.77;;
67717;SDS011;54511;47.532;19.180;2024-02-23T00:17:05;0.40;;;0.40;;
67717;SDS011;54511;47.532;19.180;2024-02-23T00:19:55;0.30;;;0.30;;
67717;SDS011;54511;47.532;19.180;2024-02-23T00:23:02;3.00;;;1.55;;
67717;SDS011;54511;47.532;19.180;2024-02-23T00:26:30;4.47;;;1.20;;
67717;SDS011;54511;47.532;19.180;2024-02-23T00:29:37;0.60;;;0.60;;
67717;SDS011;54511;47.532;19.180;2024-02-23T00:33:04;1.17;;;0.52;;
67717;SDS011;54511;47.532;19.180;2024-02-23T00:36:31;0.17;;;0.17;;
67717;SDS011;54511;47.532;19.180;2024-02-23T00:39:38;0.75;;;0.55;;
67717;SDS011;54511;47.532;19.180;2024-02-23T00:43:06;1.23;;;0.62;;
67717;SDS011;54511;47.532;19.180;2024-02-23T00:46:13;0.13;;;0.13;;
67717;SDS011;54511;47.532;19.180;2024-02-23T00:49:00;2.12;;;0.40;;
67717;SDS011;54511;47.532;19.180;2024-02-23T00:52:10;0.47;;;0.47;;
67717;SDS011;54511;47.532;19.180;2024-02-23T00:54:57;1.37;;;0.68;;
67717;SDS011;54511;47.532;19.180;2024-02-23T00:57:44;1.55;;;0.73;;
67717;SDS011;54511;47.532;19.180;2024-02-23T01:01:12;3.40;;;0.35;;
67717;SDS011;54511;47.532;19.180;2024-02-23T01:04:39;0.75;;;0.40;;
67717;SDS011;54511;47.532;19.180;2024-02-23T01:07:45;1.85;;;0.32;;
67717;SDS011;54511;47.532;19.180;2024-02-23T01:11:12;0.77;;;0.30;;
67717;SDS011;54511;47.532;19.180;2024-02-23T01:14:01;2.67;;;0.85;;
67717;SDS011;54511;47.532;19.180;2024-02-23T01:17:07;1.27;;;0.60;;
67717;SDS011;54511;47.532;19.180;2024-02-23T01:19:54;2.08;;;0.68;;
67717;SDS011;54511;47.532;19.180;2024-02-23T01:22:41;0.57;;;0.55;;
67717;SDS011;54511;47.532;19.180;2024-02-23T01:25:48;0.30;;;0.30;;
67717;SDS011;54511;47.532;19.180;2024-02-23T01:28:55;0.57;;;0.57;;
67717;SDS011;54511;47.532;19.180;2024-02-23T01:32:27;0.85;;;0.57;;
67717;SDS011;54511;47.532;19.180;2024-02-23T01:35:55;0.22;;;0.22;;
67717;SDS011;54511;47.532;19.180;2024-02-23T01:38:42;0.60;;;0.60;;
67717;SDS011;54511;47.532;19.180;2024-02-23T01:41:49;1.15;;;0.90;;
67717;SDS011;54511;47.532;19.180;2024-02-23T01:44:37;0.40;;;0.40;;
67717;SDS011;54511;47.532;19.180;2024-02-23T01:47:44;3.53;;;0.82;;
67717;SDS011;54511;47.532;19.180;2024-02-23T01:50:31;0.68;;;0.50;;
67717;SDS011;54511;47.532;19.180;2024-02-23T01:53:38;2.05;;;1.25;;
67717;SDS011;54511;47.532;19.180;2024-02-23T01:56:45;1.45;;;1.30;;
67717;SDS011;54511;47.532;19.180;2024-02-23T02:00:15;3.20;;;0.35;;
67717;SDS011;54511;47.532;19.180;2024-02-23T02:03:41;0.57;;;0.45;;
67717;SDS011;54511;47.532;19.180;2024-02-23T02:06:27;0.75;;;0.30;;
67717;SDS011;54511;47.532;19.180;2024-02-23T02:09:34;1.08;;;0.60;;
67717;SDS011;54511;47.532;19.180;2024-02-23T02:12:50;2.00;;;1.05;;
67717;SDS011;54511;47.532;19.180;2024-02-23T02:16:00;3.20;;;1.23;;
67717;SDS011;54511;47.532;19.180;2024-02-23T02:19:26;0.60;;;0.60;;
67717;SDS011;54511;47.532;19.180;2024-02-23T02:22:33;2.67;;;0.68;;
67717;SDS011;54511;47.532;19.180;2024-02-23T02:25:00;0.85;;;0.85;;
67717;SDS011;54511;47.532;19.180;2024-02-23T02:27:47;1.35;;;0.95;;
67717;SDS011;54511;47.532;19.180;2024-02-23T02:30:54;0.93;;;0.73;;
67717;SDS011;54511;47.532;19.180;2024-02-23T02:34:25;1.98;;;0.75;;
67717;SDS011;54511;47.532;19.180;2024-02-23T02:37:31;0.85;;;0.85;;
67717;SDS011;54511;47.532;19.180;2024-02-23T02:40:38;1.15;;;1.00;;
67717;SDS011;54511;47.532;19.180;2024-02-23T02:43:26;1.60;;;0.52;;
67717;SDS011;54511;47.532;19.180;2024-02-23T02:46:01;1.30;;;1.00;;
67717;SDS011;54511;47.532;19.180;2024-02-23T02:48:47;0.65;;;0.45;;
67717;SDS011;54511;47.532;19.180;2024-02-23T02:51:33;0.32;;;0.32;;
67717;SDS011;54511;47.532;19.180;2024-02-23T02:54:20;3.42;;;1.55;;
67717;SDS011;54511;47.532;19.180;2024-02-23T02:57:08;0.95;;;0.45;;
67717;SDS011;54511;47.532;19.180;2024-02-23T02:59:35;0.88;;;0.55;;
67717;SDS011;54511;47.532;19.180;2024-02-23T03:02:03;1.10;;;0.28;;
67717;SDS011;54511;47.532;19.180;2024-02-23T03:05:11;1.50;;;1.27;;
67717;SDS011;54511;47.532;19.180;2024-02-23T03:07:38;0.70;;;0.43;;
67717;SDS011;54511;47.532;19.180;2024-02-23T03:10:08;0.62;;;0.43;;
67717;SDS011;54511;47.532;19.180;2024-02-23T03:12:35;3.37;;;1.30;;
67717;SDS011;54511;47.532;19.180;2024-02-23T03:15:02;1.00;;;0.85;;
67717;SDS011;54511;47.532;19.180;2024-02-23T03:17:31;0.55;;;0.55;;
67717;SDS011;54511;47.532;19.180;2024-02-23T03:19:59;0.08;;;0.08;;
67717;SDS011;54511;47.532;19.180;2024-02-23T03:22:27;0.43;;;0.43;;
67717;SDS011;54511;47.532;19.180;2024-02-23T03:24:55;1.27;;;0.98;;
67717;SDS011;54511;47.532;19.180;2024-02-23T03:27:27;0.85;;;0.80;;
67717;SDS011;54511;47.532;19.180;2024-02-23T03:29:55;0.70;;;0.57;;
67717;SDS011;54511;47.532;19.180;2024-02-23T03:32:21;1.00;;;0.82;;
67717;SDS011;54511;47.532;19.180;2024-02-23T03:34:50;1.70;;;1.17;;
67717;SDS011;54511;47.532;19.180;2024-02-23T03:37:18;0.68;;;0.68;;
67717;SDS011;54511;47.532;19.180;2024-02-23T03:39:46;0.88;;;0.77;;
67717;SDS011;54511;47.532;19.180;2024-02-23T03:42:13;0.85;;;0.65;;
67717;SDS011;54511;47.532;19.180;2024-02-23T03:44:40;1.30;;;1.17;;
67717;SDS011;54511;47.532;19.180;2024-02-23T03:47:07;2.75;;;1.35;;
67717;SDS011;54511;47.532;19.180;2024-02-23T03:49:34;1.80;;;1.35;;
67717;SDS011;54511;47.532;19.180;2024-02-23T03:52:01;6.00;;;0.90;;
67717;SDS011;54511;47.532;19.180;2024-02-23T03:54:28;1.05;;;0.62;;
67717;SDS011;54511;47.532;19.180;2024-02-23T03:56:57;0.98;;;0.68;;
67717;SDS011;54511;47.532;19.180;2024-02-23T03:59:24;1.08;;;0.70;;
67717;SDS011;54511;47.532;19.180;2024-02-23T04:01:51;0.80;;;0.70;;
67717;SDS011;54511;47.532;19.180;2024-02-23T04:04:21;0.75;;;0.75;;
67717;SDS011;54511;47.532;19.180;2024-02-23T04:06:48;0.75;;;0.47;;
67717;SDS011;54511;47.532;19.180;2024-02-23T04:09:15;0.93;;;0.52;;
67717;SDS011;54511;47.532;19.180;2024-02-23T04:11:42;0.68;;;0.52;;
67717;SDS011;54511;47.532;19.180;2024-02-23T04:14:10;1.15;;;0.68;;
67717;SDS011;54511;47.532;19.180;2024-02-23T04:16:37;0.32;;;0.32;;
67717;SDS011;54511;47.532;19.180;2024-02-23T04:19:05;2.55;;;1.00;;
67717;SDS011;54511;47.532;19.180;2024-02-23T04:21:32;0.70;;;0.47;;
67717;SDS011;54511;47.532;19.180;2024-02-23T04:24:02;0.70;;;0.70;;
67717;SDS011;54511;47.532;19.180;2024-02-23T04:26:29;1.35;;;0.85;;
67717;SDS011;54511;47.532;19.180;2024-02-23T04:28:57;0.82;;;0.70;;
67717;SDS011;54511;47.532;19.180;2024-02-23T04:31:25;2.17;;;0.45;;
67717;SDS011;54511;47.532;19.180;2024-02-23T04:33:52;4.22;;;1.23;;
67717;SDS011;54511;47.532;19.180;2024-02-23T04:36:21;0.55;;;0.47;;
67717;SDS011;54511;47.532;19.180;2024-02-23T04:38:48;0.65;;;0.55;;
67717;SDS011;54511;47.532;19.180;2024-02-23T04:41:19;1.70;;;0.77;;
67717;SDS011;54511;47.532;19.180;2024-02-23T04:43:47;1.35;;;0.90;;
67717;SDS011;54511;47.532;19.180;2024-02-23T04:46:14;0.22;;;0.20;;
67717;SDS011;54511;47.532;19.180;2024-02-23T04:48:42;1.08;;;0.55;;
67717;SDS011;54511;47.532;19.180;2024-02-23T04:51:09;3.28;;;1.17;;
67717;SDS011;54511;47.532;19.180;2024-02-23T04:53:36;1.33;;;1.23;;
67717;SDS011;54511;47.532;19.180;2024-02-23T04:56:05;8.85;;;1.35;;
67717;SDS011;54511;47.532;19.180;2024-02-23T04:58:32;1.08;;;0.60;;
67717;SDS011;54511;47.532;19.180;2024-02-23T05:01:02;2.42;;;0.95;;
67717;SDS011;54511;47.532;19.180;2024-02-23T05:03:31;2.15;;;1.35;;
67717;SDS011;54511;47.532;19.180;2024-02-23T05:06:00;0.28;;;0.28;;
67717;SDS011;54511;47.532;19.180;2024-02-23T05:08:30;1.25;;;0.73;;
67717;SDS011;54511;47.532;19.180;2024-02-23T05:11:07;1.92;;;1.12;;
67717;SDS011;54511;47.532;19.180;2024-02-23T05:13:34;0.28;;;0.28;;
67717;SDS011;54511;47.532;19.180;2024-02-23T05:16:03;0.32;;;0.32;;
67717;SDS011;54511;47.532;19.180;2024-02-23T05:18:30;1.27;;;1.17;;
67717;SDS011;54511;47.532;19.180;2024-02-23T05:20:57;6.30;;;0.73;;
67717;SDS011;54511;47.532;19.180;2024-02-23T05:23:25;0.77;;;0.52;;
67717;SDS011;54511;47.532;19.180;2024-02-23T05:25:52;0.85;;;0.40;;
67717;SDS011;54511;47.532;19.180;2024-02-23T05:28:19;0.93;;;0.90;;
67717;SDS011;54511;47.532;19.180;2024-02-23T05:30:47;1.65;;;0.98;;
67717;SDS011;54511;47.532;19.180;2024-02-23T05:33:14;2.37;;;0.70;;
67717;SDS011;54511;47.532;19.180;2024-02-23T05:35:40;0.75;;;0.43;;
67717;SDS011;54511;47.532;19.180;2024-02-23T05:38:07;1.12;;;0.85;;
67717;SDS011;54511;47.532;19.180;2024-02-23T05:40:35;0.88;;;0.57;;
67717;SDS011;54511;47.532;19.180;2024-02-23T05:43:02;0.82;;;0.82;;
67717;SDS011;54511;47.532;19.180;2024-02-23T05:45:29;0.80;;;0.70;;
67717;SDS011;54511;47.532;19.180;2024-02-23T05:47:56;0.95;;;0.40;;
67717;SDS011;54511;47.532;19.180;2024-02-23T05:50:23;1.20;;;1.10;;
67717;SDS011;54511;47.532;19.180;2024-02-23T05:52:50;0.30;;;0.30;;
67717;SDS011;54511;47.532;19.180;2024-02-23T05:55:19;1.12;;;0.68;;
67717;SDS011;54511;47.532;19.180;2024-02-23T05:57:47;0.82;;;0.65;;
67717;SDS011;54511;47.532;19.180;2024-02-23T06:00:16;3.67;;;1.08;;
67717;SDS011;54511;47.532;19.180;2024-02-23T06:02:44;1.90;;;1.58;;
67717;SDS011;54511;47.532;19.180;2024-02-23T06:05:11;3.03;;;0.88;;
67717;SDS011;54511;47.532;19.180;2024-02-23T06:07:38;0.90;;;0.88;;
67717;SDS011;54511;47.532;19.180;2024-02-23T06:10:07;0.75;;;0.75;;
67717;SDS011;54511;47.532;19.180;2024-02-23T06:12:36;0.77;;;0.70;;
67717;SDS011;54511;47.532;19.180;2024-02-23T06:15:05;1.00;;;0.80;;
67717;SDS011;54511;47.532;19.180;2024-02-23T06:17:34;2.05;;;1.37;;
67717;SDS011;54511;47.532;19.180;2024-02-23T06:20:03;0.30;;;0.30;;
67717;SDS011;54511;47.532;19.180;2024-02-23T06:22:35;0.90;;;0.80;;
67717;SDS011;54511;47.532;19.180;2024-02-23T06:25:02;1.65;;;0.62;;
67717;SDS011;54511;47.532;19.180;2024-02-23T06:27:29;3.80;;;0.45;;
67717;SDS011;54511;47.532;19.180;2024-02-23T06:29:59;0.30;;;0.30;;
67717;SDS011;54511;47.532;19.180;2024-02-23T06:32:31;6.82;;;3.33;;
67717;SDS011;54511;47.532;19.180;2024-02-23T06:34:58;9.97;;;3.03;;
67717;SDS011;54511;47.532;19.180;2024-02-23T06:37:25;7.18;;;4.45;;
67717;SDS011;54511;47.532;19.180;2024-02-23T06:39:52;5.90;;;2.45;;
67717;SDS011;54511;47.532;19.180;2024-02-23T06:42:19;9.60;;;3.03;;
67717;SDS011;54511;47.532;19.180;2024-02-23T06:44:49;3.05;;;2.25;;
67717;SDS011;54511;47.532;19.180;2024-02-23T06:47:17;5.37;;;1.95;;
67717;SDS011;54511;47.532;19.180;2024-02-23T06:49:46;1.85;;;1.05;;
67717;SDS011;54511;47.532;19.180;2024-02-23T06:52:12;8.77;;;1.58;;
67717;SDS011;54511;47.532;19.180;2024-02-23T06:54:39;0.80;;;0.80;;
67717;SDS011;54511;47.532;19.180;2024-02-23T06:57:06;2.20;;;0.77;;
67717;SDS011;54511;47.532;19.180;2024-02-23T06:59:35;2.87;;;1.05;;
67717;SDS011;54511;47.532;19.180;2024-02-23T07:02:02;0.75;;;0.73;;
67717;SDS011;54511;47.532;19.180;2024-02-23T07:04:30;1.77;;;1.20;;
67717;SDS011;54511;47.532;19.180;2024-02-23T07:07:00;1.23;;;0.88;;
67717;SDS011;54511;47.532;19.180;2024-02-23T07:09:32;1.55;;;1.23;;
67717;SDS011;54511;47.532;19.180;2024-02-23T07:11:59;2.92;;;1.12;;
67717;SDS011;54511;47.532;19.180;2024-02-23T07:14:26;2.33;;;0.98;;
67717;SDS011;54511;47.532;19.180;2024-02-23T07:16:53;2.28;;;0.82;;
67717;SDS011;54511;47.532;19.180;2024-02-23T07:19:21;3.30;;;0.88;;
67717;SDS011;54511;47.532;19.180;2024-02-23T07:21:51;2.40;;;1.15;;
67717;SDS011;54511;47.532;19.180;2024-02-23T07:24:21;3.53;;;1.65;;
67717;SDS011;54511;47.532;19.180;2024-02-23T07:26:48;1.35;;;1.00;;
67717;SDS011;54511;47.532;19.180;2024-02-23T07:29:15;1.75;;;1.48;;
67717;SDS011;54511;47.532;19.180;2024-02-23T07:31:42;2.17;;;1.33;;
67717;SDS011;54511;47.532;19.180;2024-02-23T07:34:09;5.57;;;2.10;;
67717;SDS011;54511;47.532;19.180;2024-02-23T07:36:39;3.17;;;1.60;;
67717;SDS011;54511;47.532;19.180;2024-02-23T07:39:07;2.45;;;0.95;;
67717;SDS011;54511;47.532;19.180;2024-02-23T07:41:35;1.62;;;1.52;;
67717;SDS011;54511;47.532;19.180;2024-02-23T07:44:02;2.30;;;0.90;;
67717;SDS011;54511;47.532;19.180;2024-02-23T07:46:31;2.70;;;1.55;;
67717;SDS011;54511;47.532;19.180;2024-02-23T07:48:58;1.87;;;1.65;;
67717;SDS011;54511;47.532;19.180;2024-02-23T07:51:25;4.45;;;1.58;;
67717;SDS011;54511;47.532;19.180;2024-02-23T07:53:52;1.50;;;1.40;;
67717;SDS011;54511;47.532;19.180;2024-02-23T07:56:18;1.45;;;1.20;;
67717;SDS011;54511;47.532;19.180;2024-02-23T07:58:49;2.28;;;0.90;;
67717;SDS011;54511;47.532;19.180;2024-02-23T08:01:16;3.97;;;1.92;;
67717;SDS011;54511;47.532;19.180;2024-02-23T08:03:46;1.85;;;1.52;;
67717;SDS011;54511;47.532;19.180;2024-02-23T08:06:13;3.85;;;1.30;;
67717;SDS011;54511;47.532;19.180;2024-02-23T08:08:55;1.23;;;0.68;;
67717;SDS011;54511;47.532;19.180;2024-02-23T08:11:22;1.60;;;0.77;;
67717;SDS011;54511;47.532;19.180;2024-02-23T08:13:51;2.55;;;1.58;;
67717;SDS011;54511;47.532;19.180;2024-02-23T08:16:22;2.05;;;1.23;;
67717;SDS011;54511;47.532;19.180;2024-02-23T08:18:48;4.65;;;1.80;;
67717;SDS011;54511;47.532;19.180;2024-02-23T08:21:15;2.37;;;1.02;;
67717;SDS011;54511;47.532;19.180;2024-02-23T08:23:43;1.70;;;1.30;;
67717;SDS011;54511;47.532;19.180;2024-02-23T08:26:11;4.80;;;1.55;;
67717;SDS011;54511;47.532;19.180;2024-02-23T08:28:37;1.37;;;1.02;;
67717;SDS011;54511;47.532;19.180;2024-02-23T08:31:06;3.67;;;2.90;;
67717;SDS011;54511;47.532;19.180;2024-02-23T08:33:32;4.07;;;1.45;;
67717;SDS011;54511;47.532;19.180;2024-02-23T08:35:59;0.70;;;0.70;;
67717;SDS011;54511;47.532;19.180;2024-02-23T08:38:30;1.60;;;1.48;;
67717;SDS011;54511;47.532;19.180;2024-02-23T08:40:57;3.60;;;1.25;;
67717;SDS011;54511;47.532;19.180;2024-02-23T08:43:25;2.15;;;1.12;;
67717;SDS011;54511;47.532;19.180;2024-02-23T08:45:57;3.15;;;2.25;;
67717;SDS011;54511;47.532;19.180;2024-02-23T08:48:25;2.08;;;1.23;;
67717;SDS011;54511;47.532;19.180;2024-02-23T08:50:51;4.03;;;2.40;;
67717;SDS011;54511;47.532;19.180;2024-02-23T08:53:18;4.75;;;1.37;;
67717;SDS011;54511;47.532;19.180;2024-02-23T08:55:45;3.67;;;1.30;;
67717;SDS011;54511;47.532;19.180;2024-02-23T08:58:12;2.72;;;1.27;;
67717;SDS011;54511;47.532;19.180;2024-02-23T09:00:38;1.90;;;1.35;;
67717;SDS011;54511;47.532;19.180;2024-02-23T09:03:05;1.30;;;1.10;;
67717;SDS011;54511;47.532;19.180;2024-02-23T09:05:33;6.15;;;2.60;;
67717;SDS011;54511;47.532;19.180;2024-02-23T09:08:00;2.00;;;1.83;;
67717;SDS011;54511;47.532;19.180;2024-02-23T09:10:27;2.25;;;1.50;;
67717;SDS011;54511;47.532;19.180;2024-02-23T09:12:53;2.37;;;2.12;;
67717;SDS011;54511;47.532;19.180;2024-02-23T09:15:21;4.65;;;1.42;;
67717;SDS011;54511;47.532;19.180;2024-02-23T09:17:49;7.30;;;1.48;;
67717;SDS011;54511;47.532;19.180;2024-02-23T09:20:16;1.37;;;1.10;;
67717;SDS011;54511;47.532;19.180;2024-02-23T09:22:46;2.55;;;1.37;;
67717;SDS011;54511;47.532;19.180;2024-02-23T09:25:13;7.35;;;2.05;;
67717;SDS011;54511;47.532;19.180;2024-02-23T09:27:40;1.35;;;1.17;;
67717;SDS011;54511;47.532;19.180;2024-02-23T09:30:13;2.00;;;1.73;;
67717;SDS011;54511;47.532;19.180;2024-02-23T09:32:41;2.65;;;1.92;;
67717;SDS011;54511;47.532;19.180;2024-02-23T09:35:08;2.12;;;1.55;;
67717;SDS011;54511;47.532;19.180;2024-02-23T09:37:36;3.17;;;1.50;;
67717;SDS011;54511;47.532;19.180;2024-02-23T09:40:05;2.22;;;1.77;;
67717;SDS011;54511;47.532;19.180;2024-02-23T09:42:34;2.58;;;1.58;;
67717;SDS011;54511;47.532;19.180;2024-02-23T09:45:00;1.33;;;1.08;;
67717;SDS011;54511;47.532;19.180;2024-02-23T09:47:27;3.55;;;1.58;;
67717;SDS011;54511;47.532;19.180;2024-02-23T09:49:55;1.75;;;0.98;;
67717;SDS011;54511;47.532;19.180;2024-02-23T09:52:22;2.62;;;1.45;;
67717;SDS011;54511;47.532;19.180;2024-02-23T09:54:49;2.37;;;1.45;;
67717;SDS011;54511;47.532;19.180;2024-02-23T09:57:21;3.75;;;1.35;;
67717;SDS011;54511;47.532;19.180;2024-02-23T09:59:52;2.28;;;1.73;;
67717;SDS011;54511;47.532;19.180;2024-02-23T10:02:19;1.30;;;1.20;;
67717;SDS011;54511;47.532;19.180;2024-02-23T10:04:46;4.25;;;1.40;;
67717;SDS011;54511;47.532;19.180;2024-02-23T10:07:15;3.12;;;1.67;;
67717;SDS011;54511;47.532;19.180;2024-02-23T10:09:42;2.60;;;2.15;;
67717;SDS011;54511;47.532;19.180;2024-02-23T10:12:10;3.05;;;2.03;;
67717;SDS011;54511;47.532;19.180;2024-02-23T10:14:38;4.57;;;1.30;;
67717;SDS011;54511;47.532;19.180;2024-02-23T10:17:07;3.72;;;1.42;;
67717;SDS011;54511;47.532;19.180;2024-02-23T10:19:34;2.65;;;1.15;;
67717;SDS011;54511;47.532;19.180;2024-02-23T10:22:02;2.72;;;1.70;;
67717;SDS011;54511;47.532;19.180;2024-02-23T10:24:29;1.20;;;1.10;;
67717;SDS011;54511;47.532;19.180;2024-02-23T10:26:56;1.50;;;1.20;;
67717;SDS011;54511;47.532;19.180;2024-02-23T10:29:25;0.95;;;0.82;;
67717;SDS011;54511;47.532;19.180;2024-02-23T10:31:57;1.95;;;1.05;;
67717;SDS011;54511;47.532;19.180;2024-02-23T10:34:24;1.67;;;1.20;;
67717;SDS011;54511;47.532;19.180;2024-02-23T10:36:51;1.20;;;1.08;;
67717;SDS011;54511;47.532;19.180;2024-02-23T10:39:19;1.20;;;1.05;;
67717;SDS011;54511;47.532;19.180;2024-02-23T10:41:51;0.95;;;0.90;;
67717;SDS011;54511;47.532;19.180;2024-02-23T10:44:23;1.83;;;0.80;;
67717;SDS011;54511;47.532;19.180;2024-02-23T10:46:50;1.15;;;0.93;;
67717;SDS011;54511;47.532;19.180;2024-02-23T10:49:18;3.08;;;1.62;;
67717;SDS011;54511;47.532;19.180;2024-02-23T10:51:47;2.37;;;1.25;;
67717;SDS011;54511;47.532;19.180;2024-02-23T10:54:22;2.67;;;1.45;;
67717;SDS011;54511;47.532;19.180;2024-02-23T10:56:50;1.33;;;1.08;;
67717;SDS011;54511;47.532;19.180;2024-02-23T10:59:38;4.93;;;2.12;;
67717;SDS011;54511;47.532;19.180;2024-02-23T11:02:10;19.20;;;5.07;;
67717;SDS011;54511;47.532;19.180;2024-02-23T11:05:00;6.80;;;2.05;;
67717;SDS011;54511;47.532;19.180;2024-02-23T11:08:28;1.60;;;1.15;;
67717;SDS011;54511;47.532;19.180;2024-02-23T11:11:06;1.20;;;1.08;;
67717;SDS011;54511;47.532;19.180;2024-02-23T11:13:58;4.37;;;2.17;;
67717;SDS011;54511;47.532;19.180;2024-02-23T11:16:25;1.75;;;1.00;;
67717;SDS011;54511;47.532;19.180;2024-02-23T11:19:01;2.83;;;1.55;;
67717;SDS011;54511;47.532;19.180;2024-02-23T11:21:53;1.60;;;1.42;;
67717;SDS011;54511;47.532;19.180;2024-02-23T11:24:44;2.28;;;1.98;;
67717;SDS011;54511;47.532;19.180;2024-02-23T11:27:57;0.70;;;0.70;;
67717;SDS011;54511;47.532;19.180;2024-02-23T11:30:25;3.70;;;1.62;;
67717;SDS011;54511;47.532;19.180;2024-02-23T11:33:02;4.80;;;2.10;;
67717;SDS011;54511;47.532;19.180;2024-02-23T11:35:31;3.20;;;1.27;;
67717;SDS011;54511;47.532;19.180;2024-02-23T11:38:40;2.45;;;1.80;;
67717;SDS011;54511;47.532;19.180;2024-02-23T11:41:49;2.47;;;1.40;;
67717;SDS011;54511;47.532;19.180;2024-02-23T11:44:33;3.95;;;2.00;;
67717;SDS011;54511;47.532;19.180;2024-02-23T11:47:40;2.25;;;1.95;;
67717;SDS011;54511;47.532;19.180;2024-02-23T11:50:09;3.87;;;2.17;;
67717;SDS011;54511;47.532;19.180;2024-02-23T11:53:16;4.65;;;2.90;;
67717;SDS011;54511;47.532;19.180;2024-02-23T11:56:26;3.53;;;2.30;;
67717;SDS011;54511;47.532;19.180;2024-02-23T11:59:14;5.50;;;2.55;;
67717;SDS011;54511;47.532;19.180;2024-02-23T12:02:21;4.12;;;1.65;;
67717;SDS011;54511;47.532;19.180;2024-02-23T12:05:30;3.83;;;2.17;;
67717;SDS011;54511;47.532;19.180;2024-02-23T12:08:17;1.75;;;1.33;;
67717;SDS011;54511;47.532;19.180;2024-02-23T12:11:29;1.58;;;1.12;;
67717;SDS011;54511;47.532;19.180;2024-02-23T12:14:20;5.03;;;1.73;;
67717;SDS011;54511;47.532;19.180;2024-02-23T12:17:26;2.95;;;1.45;;
67717;SDS011;54511;47.532;19.180;2024-02-23T12:20:14;0.98;;;0.93;;
67717;SDS011;54511;47.532;19.180;2024-02-23T12:23:00;3.72;;;1.37;;
67717;SDS011;54511;47.532;19.180;2024-02-23T12:26:07;5.55;;;2.53;;
67717;SDS011;54511;47.532;19.180;2024-02-23T12:29:16;2.60;;;1.87;;
67717;SDS011;54511;47.532;19.180;2024-02-23T12:32:04;4.72;;;2.37;;
67717;SDS011;54511;47.532;19.180;2024-02-23T12:35:11;8.98;;;2.15;;
67717;SDS011;54511;47.532;19.180;2024-02-23T12:37:58;10.85;;;1.90;;
67717;SDS011;54511;47.532;19.180;2024-02-23T12:40:45;3.22;;;1.92;;
67717;SDS011;54511;47.532;19.180;2024-02-23T12:43:14;2.08;;;1.45;;
67717;SDS011;54511;47.532;19.180;2024-02-23T12:46:01;2.50;;;1.27;;
67717;SDS011;54511;47.532;19.180;2024-02-23T12:48:29;3.33;;;1.62;;
67717;SDS011;54511;47.532;19.180;2024-02-23T12:50:56;2.00;;;1.45;;
67717;SDS011;54511;47.532;19.180;2024-02-23T12:53:44;2.40;;;2.17;;
67717;SDS011;54511;47.532;19.180;2024-02-23T12:56:11;2.40;;;1.48;;
67717;SDS011;54511;47.532;19.180;2024-02-23T12:58:43;1.52;;;1.42;;
67717;SDS011;54511;47.532;19.180;2024-02-23T13:01:15;4.40;;;2.30;;
67717;SDS011;54511;47.532;19.180;2024-02-23T13:03:42;3.12;;;1.27;;
67717;SDS011;54511;47.532;19.180;2024-02-23T13:06:09;3.55;;;2.05;;
67717;SDS011;54511;47.532;19.180;2024-02-23T13:08:42;5.90;;;2.12;;
67717;SDS011;54511;47.532;19.180;2024-02-23T13:11:15;6.50;;;2.78;;
67717;SDS011;54511;47.532;19.180;2024-02-23T13:13:43;7.87;;;4.10;;
67717;SDS011;54511;47.532;19.180;2024-02-23T13:16:13;4.32;;;2.33;;
67717;SDS011;54511;47.532;19.180;2024-02-23T13:18:41;5.95;;;3.33;;
67717;SDS011;54511;47.532;19.180;2024-02-23T13:21:13;4.40;;;2.37;;
67717;SDS011;54511;47.532;19.180;2024-02-23T13:26:38;4.95;;;2.60;;
67717;SDS011;54511;47.532;19.180;2024-02-23T13:29:30;13.73;;;3.15;;
67717;SDS011;54511;47.532;19.180;2024-02-23T13:32:00;3.85;;;2.28;;
67717;SDS011;54511;47.532;19.180;2024-02-23T13:34:47;4.15;;;1.58;;
67717;SDS011;54511;47.532;19.180;2024-02-23T13:37:18;4.10;;;2.20;;
67717;SDS011;54511;47.532;19.180;2024-02-23T13:40:01;4.65;;;2.20;;
67717;SDS011;54511;47.532;19.180;2024-02-23T13:42:31;7.18;;;4.55;;
67717;SDS011;54511;47.532;19.180;2024-02-23T13:45:00;5.70;;;2.42;;
67717;SDS011;54511;47.532;19.180;2024-02-23T13:47:28;8.65;;;2.30;;
67717;SDS011;54511;47.532;19.180;2024-02-23T13:49:56;4.82;;;2.47;;
67717;SDS011;54511;47.532;19.180;2024-02-23T13:52:32;3.60;;;1.42;;
67717;SDS011;54511;47.532;19.180;2024-02-23T13:55:19;2.22;;;1.50;;
67717;SDS011;54511;47.532;19.180;2024-02-23T13:58:09;3.10;;;1.58;;
67717;SDS011;54511;47.532;19.180;2024-02-23T14:00:38;5.00;;;2.12;;
67717;SDS011;54511;47.532;19.180;2024-02-23T14:03:08;7.10;;;3.13;;
67717;SDS011;54511;47.532;19.180;2024-02-23T14:06:06;2.45;;;1.77;;
67717;SDS011;54511;47.532;19.180;2024-02-23T14:08:54;4.05;;;2.12;;
67717;SDS011;54511;47.532;19.180;2024-02-23T14:11:23;2.25;;;1.55;;
67717;SDS011;54511;47.532;19.180;2024-02-23T14:13:51;5.10;;;1.80;;
67717;SDS011;54511;47.532;19.180;2024-02-23T14:16:21;9.95;;;2.25;;
67717;SDS011;54511;47.532;19.180;2024-02-23T14:18:49;3.37;;;2.08;;
67717;SDS011;54511;47.532;19.180;2024-02-23T14:21:18;3.28;;;2.03;;
67717;SDS011;54511;47.532;19.180;2024-02-23T14:24:01;4.75;;;2.05;;
67717;SDS011;54511;47.532;19.180;2024-02-23T14:26:52;4.03;;;1.77;;
67717;SDS011;54511;47.532;19.180;2024-02-23T14:29:21;1.77;;;1.65;;
67717;SDS011;54511;47.532;19.180;2024-02-23T14:32:09;2.12;;;1.77;;
67717;SDS011;54511;47.532;19.180;2024-02-23T14:34:44;3.53;;;1.55;;
67717;SDS011;54511;47.532;19.180;2024-02-23T14:37:11;3.28;;;1.60;;
67717;SDS011;54511;47.532;19.180;2024-02-23T14:40:08;1.60;;;1.25;;
67717;SDS011;54511;47.532;19.180;2024-02-23T14:42:38;5.80;;;1.67;;
67717;SDS011;54511;47.532;19.180;2024-02-23T14:45:43;3.03;;;1.70;;
67717;SDS011;54511;47.532;19.180;2024-02-23T14:48:17;4.60;;;2.20;;
67717;SDS011;54511;47.532;19.180;2024-02-23T14:51:00;3.47;;;2.47;;
67717;SDS011;54511;47.532;19.180;2024-02-23T14:54:26;2.33;;;1.98;;
67717;SDS011;54511;47.532;19.180;2024-02-23T14:57:54;2.40;;;1.80;;
67717;SDS011;54511;47.532;19.180;2024-02-23T15:01:01;4.62;;;2.20;;
67717;SDS011;54511;47.532;19.180;2024-02-23T15:04:09;3.75;;;1.92;;
67717;SDS011;54511;47.532;19.180;2024-02-23T15:06:56;4.05;;;3.20;;
67717;SDS011;54511;47.532;19.180;2024-02-23T15:10:04;5.03;;;2.67;;
67717;SDS011;54511;47.532;19.180;2024-02-23T15:13:11;5.18;;;2.12;;
67717;SDS011;54511;47.532;19.180;2024-02-23T15:15:59;3.30;;;1.75;;
67717;SDS011;54511;47.532;19.180;2024-02-23T15:18:28;4.30;;;2.12;;
67717;SDS011;54511;47.532;19.180;2024-02-23T15:21:47;8.57;;;3.28;;
67717;SDS011;54511;47.532;19.180;2024-02-23T15:24:56;3.03;;;1.98;;
67717;SDS011;54511;47.532;19.180;2024-02-23T15:27:52;4.25;;;2.10;;
67717;SDS011;54511;47.532;19.180;2024-02-23T15:30:59;4.20;;;2.25;;
67717;SDS011;54511;47.532;19.180;2024-02-23T15:33:27;2.33;;;1.90;;
67717;SDS011;54511;47.532;19.180;2024-02-23T15:35:58;2.65;;;1.80;;
67717;SDS011;54511;47.532;19.180;2024-02-23T15:39:07;4.57;;;2.20;;
67717;SDS011;54511;47.532;19.180;2024-02-23T15:41:54;1.75;;;1.62;;
67717;SDS011;54511;47.532;19.180;2024-02-23T15:44:43;3.97;;;1.70;;
67717;SDS011;54511;47.532;19.180;2024-02-23T15:47:30;4.45;;;2.25;;